WEATHER DATA

YESTERDAY
Time Temp. Dewp. Hum. Wind dir Wind speed Wind gust Bar. 1h Prec. 24h Prec.
00:03 6.3 3.8 84 254 0.8 1.9 1029.6 0.0000 0.0000
00:13 6.2 3.7 84 258 1.1 2.2 1029.3 0.0000 0.0000
00:24 6.2 3.7 84 270 1.1 1.9 1029.3 0.0000 0.0000
00:34 6.1 3.6 84 257 0.8 2.2 1029.4 0.0000 0.0000
00:43 5.9 3.4 84 258 0.8 2.2 1029.3 0.0000 0.0000
00:54 5.8 3.3 84 258 0.8 1.9 1029.2 0.0000 0.0000
01:04 5.7 3.2 84 270 0.8 1.9 1029.3 0.0000 0.0000
01:14 5.6 3.1 84 270 0.8 1.9 1029.3 0.0000 0.0000
01:24 5.5 3 84 262 1.1 1.7 1029.2 0.0000 0.0000
01:34 5.4 2.9 84 262 1.1 1.7 1029.2 0.0000 0.0000
01:44 5.3 2.8 84 260 1.1 2.2 1029.1 0.0000 0.0000
01:54 5.2 2.9 85 259 1.1 2.2 1029.1 0.0000 0.0000
02:04 5.2 2.9 85 260 1.1 1.9 1029 0.0000 0.0000
02:14 5.1 2.8 85 263 1.4 2.5 1028.9 0.0000 0.0000
02:24 5.1 2.8 85 264 1.4 2.8 1028.8 0.0000 0.0000
02:34 5.1 2.8 85 270 1.4 2.5 1028.8 0.0000 0.0000
02:45 5.1 2.8 85 270 1.4 2.2 1028.8 0.0000 0.0000
02:54 5 2.7 85 254 1.4 2.5 1028.8 0.0000 0.0000
03:04 4.9 2.6 85 263 1.4 2.2 1028.7 0.0000 0.0000
03:15 4.8 2.5 85 270 1.1 1.9 1028.5 0.0000 0.0000
03:24 4.7 2.4 85 259 1.1 2.2 1028.5 0.0000 0.0000
03:34 4.6 2.3 85 270 1.1 3.3 1028.4 0.0000 0.0000
03:45 4.4 2.1 85 261 1.1 1.9 1028.4 0.0000 0.0000
03:55 4.3 2 85 249 0.8 2.5 1028.3 0.0000 0.0000
04:05 4.1 1.8 85 270 0.8 1.7 1028.2 0.0000 0.0000
04:14 4.1 1.8 85 270 1.1 1.9 1028.2 0.0000 0.0000
04:25 4 1.9 86 270 0.8 1.7 1028.2 0.0000 0.0000
04:35 3.9 1.8 86 270 0.8 1.9 1028.2 0.0000 0.0000
04:45 3.9 1.8 86 279 1.1 1.9 1028.2 0.0000 0.0000
04:55 3.8 1.7 86 270 0.8 1.7 1028.1 0.0000 0.0000
05:05 3.7 1.6 86 270 0.8 2.2 1028 0.0000 0.0000
05:15 3.6 1.5 86 270 0.8 1.4 1028 0.0000 0.0000
05:25 3.5 1.4 86 270 0.8 1.7 1027.9 0.0000 0.0000
05:35 3.4 1.3 86 270 0.8 1.7 1027.8 0.0000 0.0000
05:45 3.3 1.2 86 270 0.8 1.4 1027.8 0.0000 0.0000
05:55 3.2 1.1 86 270 0.8 1.7 1027.7 0.0000 0.0000
06:06 3.1 1 86 256 0.8 1.4 1027.8 0.0000 0.0000
06:15 2.9 0.8 86 258 1.1 1.9 1027.8 0.0000 0.0000
06:24 2.9 1 87 257 0.8 1.4 1027.8 0.0000 0.0000
06:35 2.8 0.7 86 253 0.6 1.9 1027.7 0.0000 0.0000
06:45 2.7 0.8 87 270 0.8 1.4 1027.6 0.0000 0.0000
06:55 2.7 0.8 87 270 0.6 1.4 1027.5 0.0000 0.0000
07:04 2.7 0.8 87 270 0.8 1.1 1027.5 0.0000 0.0000
07:15 2.7 0.8 87 259 0.8 1.4 1027.4 0.0000 0.0000
07:25 2.8 0.9 87 260 0.8 1.1 1027.3 0.0000 0.0000
07:35 2.8 1 88 270 0.8 1.4 1027.3 0.0000 0.0000
07:45 2.8 1 88 244 0.6 1.4 1027.3 0.0000 0.0000
07:55 2.9 1.1 88 252 0.8 1.7 1027.3 0.0000 0.0000
08:05 3.1 1.3 88 257 1.1 2.2 1027.2 0.0000 0.0000
08:15 3.3 1.7 89 257 0.8 2.5 1027.2 0.0000 0.0000
08:26 3.6 2 89 257 0.8 2.5 1027.2 0.0000 0.0000
08:35 3.9 2.3 89 257 0.8 2.5 1027.1 0.0000 0.0000
08:45 4.3 2.8 90 0 0 1027.3 0.0000 0.0000
08:56 4.7 3.2 90 0 0 1027.3 0.0000 0.0000
09:06 5.2 3.7 90 0 0 1027.4 0.0000 0.0000
09:16 5.7 4.2 90 0 0 1027.3 0.0000 0.0000
09:25 6.2 4.5 89 0 0 1027.4 0.0000 0.0000
09:36 6.6 4.9 89 0 0 1027.3 0.0000 0.0000
09:46 7 5 87 0 0 1027.4 0.0000 0.0000
09:56 7.2 5.2 87 0 0 1027.5 0.0000 0.0000
10:06 7.4 5 85 0 0 1027.5 0.0000 0.0000
10:19 7.6 5.1 84 257 0.8 2.5 1027.5 0.0000 0.0000
10:29 7.9 5.2 83 42 1.1 2.2 1027.5 0.0000 0.0000
10:39 8.2 5.3 82 34 1.4 3.1 1027.3 0.0000 0.0000
10:49 8.5 5.6 82 9 1.1 2.8 1027.2 0.0000 0.0000
10:59 8.8 5.7 81 52 1.1 2.5 1027 0.0000 0.0000
11:09 9.1 5.8 80 68 0.6 1.9 1026.7 0.0000 0.0000
11:19 9.3 5.7 78 23 1.1 1.9 1026.7 0.0000 0.0000
11:29 9.3 5.5 77 353 1.4 2.5 1026.6 0.0000 0.0000
11:40 9.2 5.2 76 15 0.8 1.7 1026.6 0.0000 0.0000
11:50 9.3 5.3 76 28 0.8 1.9 1026.6 0.0000 0.0000
11:59 9.5 5.5 76 7 1.1 2.2 1026.6 0.0000 0.0000
12:10 9.6 5.6 76 25 1.4 2.8 1026.6 0.0000 0.0000
12:20 9.7 5.5 75 337 1.9 3.6 1026.6 0.0000 0.0000
12:30 9.6 5.2 74 345 1.7 3.6 1026.6 0.0000 0.0000
12:39 9.3 4.7 73 358 1.9 3.9 1026.7 0.0000 0.0000
12:50 9.1 4.3 72 11 1.9 3.3 1026.6 0.0000 0.0000
13:00 9.2 4.4 72 26 1.9 3.3 1026.5 0.0000 0.0000
13:10 9.5 4.7 72 341 1.4 3.1 1026.4 0.0000 0.0000
13:20 9.8 5.2 73 317 1.9 5 1026.3 0.0000 0.0000
13:30 10.1 5.5 73 0 1.7 3.3 1026.1 0.0000 0.0000
13:40 10.4 5.8 73 350 1.1 3.1 1026 0.0000 0.0000
13:50 10.7 5.9 72 286 1.4 3.9 1025.9 0.0000 0.0000
14:01 11 6.2 72 294 1.1 2.5 1025.7 0.0000 0.0000
14:10 11.2 6.1 71 22 1.1 3.1 1025.5 0.0000 0.0000
14:20 11.4 6.1 70 308 1.1 2.8 1025.4 0.0000 0.0000
14:31 11.7 6.4 70 309 1.9 3.9 1025.3 0.0000 0.0000
14:41 11.8 5.9 67 312 1.7 3.3 1025.1 0.0000 0.0000
14:51 11.9 5.5 65 284 1.4 2.8 1025 0.0000 0.0000
15:00 12.1 5.7 65 330 1.1 2.8 1024.9 0.0000 0.0000
15:11 12.2 5.8 65 310 1.1 2.8 1024.6 0.0000 0.0000
15:21 12.2 5.8 65 307 1.1 3.1 1024.5 0.0000 0.0000
15:31 12.2 5.6 64 316 1.4 3.1 1024.5 0.0000 0.0000
15:41 12.2 5.6 64 301 1.7 3.3 1024.6 0.0000 0.0000
15:51 12.1 5.7 65 316 1.1 2.8 1024.5 0.0000 0.0000
16:01 12.1 5.5 64 310 1.4 2.8 1024.4 0.0000 0.0000
16:11 12.1 5.3 63 300 1.9 3.9 1024.4 0.0000 0.0000
16:21 11.9 5.1 63 320 1.7 3.3 1024.4 0.0000 0.0000
16:31 11.8 5 63 310 1.4 3.3 1024.4 0.0000 0.0000
16:41 11.7 4.4 61 312 1.4 3.3 1024.3 0.0000 0.0000
16:51 11.6 4.3 61 324 1.4 3.3 1024.2 0.0000 0.0000
17:01 11.5 4.2 61 338 1.4 3.3 1024.2 0.0000 0.0000
17:11 11.3 4.3 62 304 1.4 2.8 1024.1 0.0000 0.0000
17:21 11.3 4.5 63 308 1.4 3.6 1024 0.0000 0.0000
17:31 11.1 4.1 62 313 1.4 2.8 1023.9 0.0000 0.0000
17:41 11 4.2 63 315 1.1 2.2 1023.8 0.0000 0.0000
17:51 10.8 4.3 64 313 1.4 3.1 1023.9 0.0000 0.0000
18:02 10.6 4.1 64 304 1.7 3.9 1023.9 0.0000 0.0000
18:11 10.4 3.4 62 291 1.9 4.4 1023.8 0.0000 0.0000
18:21 10.1 3.4 63 283 1.1 2.2 1023.9 0.0000 0.0000
18:31 9.9 3.4 64 293 1.7 3.3 1023.9 0.0000 0.0000
18:42 9.6 3.4 65 287 1.1 3.1 1023.9 0.0000 0.0000
18:51 9.3 3.1 65 270 1.4 3.1 1024 0.0000 0.0000
19:01 9 2.8 65 281 1.1 2.8 1024 0.0000 0.0000
19:12 8.6 2.4 65 270 1.4 3.1 1024 0.0000 0.0000
19:22 8.4 2.4 66 270 1.4 3.1 1023.9 0.0000 0.0000
19:31 8.2 2.2 66 260 1.1 1.9 1024 0.0000 0.0000
19:42 7.9 2.2 67 270 1.4 3.6 1024.1 0.0000 0.0000
19:52 7.7 2 67 270 0.8 2.2 1024.2 0.0000 0.0000
20:00 7.5 2 68 281 1.4 3.3 1024.2 0.0000 0.0000
20:11 7.3 2 69 278 1.1 2.2 1024.2 0.0000 0.0000
20:20 7.2 1.9 69 270 1.1 2.2 1024.1 0.0000 0.0000
20:30 7 1.9 70 270 1.1 2.2 1024 0.0000 0.0000
20:41 6.9 1.8 70 270 0.8 1.7 1024 0.0000 0.0000
20:51 6.7 1.8 71 254 1.1 2.2 1023.9 0.0000 0.0000
21:00 6.5 1.6 71 270 0.8 1.4 1024.1 0.0000 0.0000
21:10 6.4 1.5 71 270 1.1 2.2 1024 0.0000 0.0000
21:21 6.2 1.3 71 262 1.1 1.9 1023.9 0.0000 0.0000
21:31 6 1.1 71 251 1.4 1.9 1023.8 0.0000 0.0000
21:40 5.9 1.1 71 251 1.1 1.9 1023.7 0.0000 0.0000
21:51 5.7 1.1 72 250 1.1 1.9 1023.6 0.0000 0.0000
22:01 5.6 1 72 245 0.8 1.7 1023.5 0.0000 0.0000
22:11 5.5 0.9 72 240 0.8 1.4 1023.5 0.0000 0.0000
22:20 5.4 0.8 72 243 1.1 1.9 1023.4 0.0000 0.0000
22:31 5.3 0.9 73 234 1.1 2.5 1023.2 0.0000 0.0000
22:41 5.3 0.9 73 237 1.1 1.7 1023 0.0000 0.0000
22:51 5.1 0.7 73 233 1.1 2.2 1023 0.0000 0.0000
23:01 5.1 0.7 73 236 1.4 3.1 1022.9 0.0000 0.0000
23:11 5 0.6 73 240 1.4 2.2 1022.7 0.0000 0.0000
23:21 4.8 0.6 74 241 1.4 2.5 1022.5 0.0000 0.0000
23:31 4.8 0.6 74 233 1.1 2.2 1022.4 0.0000 0.0000
23:41 4.7 0.5 74 230 1.1 2.2 1022.2 0.0000 0.0000
23:51 4.6 0.4 74 233 0.8 1.9 1022.1 0.0000 0.0000

DAY STATISTIC

2019-03-24
TEMPERATURE
AVERAGE
7.0
HIGH
12.2
15:11
LOW
2.7
06:45
PRESSURE
AVERAGE
1026.2
HIGH
1029.6
00:03
LOW
1022.1
23:51
DEWPOINT
AVERAGE
3.1
HIGH
6.4
14:31
LOW
0.4
23:51
HUMIDITY
AVERAGE
77
HIGH
90
08:45
LOW
61
16:41
WIND SPEED
AVERAGE
1.1
HIGH
1.9
12:20
WIND GUST
AVERAGE
2.3
HIGH
5.0
13:20
WIND DIRECTION
PREVAILING
W
56.7%
N
9.0
NE
5.2
E
0.7
SE
0.0
S
0.0
SW
9.7
W
56.7
NW
18.7
PRECIPITATION
RAIN HOUR
0.0
RAIN DAY
0.0
TEMPERATURE (°C)
LOW
2.7
HIGH
12.2
AVERAGE
7.0
PRESSURE (hpa)
LOW
1022.1
HIGH
1029.6
AVERAGE
1026.2
DEVICE